Decoded Metar for LKNA (NAMEST in CZECH REPUBLIC) (IATA:N/A) | Meteo·Mobile Aviation Weather
aviador You're here:

LKNA Decoded Metar

NAMEST in CZECH REPUBLIC
Report Time2018-09-22 14:00:00
UTC Time2018-09-22 15:00:33
Flight Rules vfr VFR
Wind280° at 11 kt
W.Decomp.*RWY 31: 9.2 kt HW 6 kt LCW
W.Rank280° ranks 10
Current wind is above 280° avg. (9.2)
Visibility9999 m
Phenomena:N/A
Clouds:N/A
Expected CloudBase > 4,800 ft AGL from Temp-Dew spread
CeilingNone
Temp16°C (ISA +4)
Dew Point04°C (45% RH)
AAT10.7°C
QNH1020 hPa
Density Alt1,909 ft
Elevation1,549 ft
Report Wrong Elevation
Raw Report
LKNA 221400Z 28011KT CAVOK 16/04 Q1020 NOSIG=

Extra information for LKNA:More info

Metar Taf Metar & Taf Last 4 Metars F.Rules Stats Wind Profile Meteogram Temp Stats Airport Information Weather charts Add Link Nearby VenuesMetar ALERT Operation Metar Decoded Social comments